createdAt,value
2019-05-17T00:03:01.639Z,8.00
2019-05-17T00:06:07.036Z,8.27
2019-05-17T00:09:11.881Z,9.03
2019-05-17T00:12:16.727Z,8.63
2019-05-17T00:15:21.626Z,8.73
2019-05-17T00:18:26.559Z,9.07
2019-05-17T00:21:31.489Z,8.57
2019-05-17T00:24:36.970Z,8.07
2019-05-17T00:27:41.695Z,8.60
2019-05-17T00:30:46.719Z,8.40
2019-05-17T00:33:51.881Z,8.97
2019-05-17T00:36:57.434Z,8.50
2019-05-17T00:40:02.023Z,8.07
2019-05-17T00:43:07.031Z,8.03
2019-05-17T00:46:12.329Z,8.60
2019-05-17T00:49:17.343Z,8.57
2019-05-17T00:52:22.394Z,8.63
2019-05-17T00:55:26.923Z,8.67
2019-05-17T00:58:31.607Z,8.57
2019-05-17T01:01:36.590Z,8.00
2019-05-17T01:04:41.614Z,8.47
2019-05-17T01:07:47.051Z,7.73
2019-05-17T01:10:52.062Z,8.63
2019-05-17T01:13:58.635Z,8.47
2019-05-17T01:17:03.273Z,8.40
2019-05-17T01:20:09.476Z,8.77
2019-05-17T01:23:16.534Z,8.63
2019-05-17T01:26:21.109Z,8.63
2019-05-17T01:29:26.818Z,8.40
2019-05-17T01:32:31.939Z,8.83
2019-05-17T01:35:37.599Z,8.80
2019-05-17T01:38:42.580Z,8.73
2019-05-17T01:41:47.642Z,9.77
2019-05-17T01:44:52.373Z,8.63
2019-05-17T01:47:57.136Z,9.97
2019-05-17T01:51:02.206Z,9.00
2019-05-17T01:54:06.985Z,9.00
2019-05-17T01:57:12.016Z,9.83
2019-05-17T02:00:18.196Z,9.07
2019-05-17T02:03:22.791Z,9.57
2019-05-17T02:06:27.661Z,8.87
2019-05-17T02:09:37.906Z,9.47
2019-05-17T02:12:39.172Z,9.73
2019-05-17T02:15:44.191Z,8.73
2019-05-17T02:18:49.145Z,9.53
2019-05-17T02:21:53.859Z,9.67
2019-05-17T02:24:58.527Z,9.73
2019-05-17T02:28:03.321Z,10.07
2019-05-17T02:31:08.210Z,9.67
2019-05-17T02:34:14.161Z,9.60
2019-05-17T02:37:19.112Z,9.03
2019-05-17T02:40:23.845Z,8.80
2019-05-17T02:43:28.681Z,8.77
2019-05-17T02:46:33.782Z,10.23
2019-05-17T02:49:38.536Z,9.80
2019-05-17T02:52:44.093Z,10.27
2019-05-17T02:55:48.723Z,10.87
2019-05-17T02:58:53.507Z,10.67
2019-05-17T03:01:58.009Z,10.77
2019-05-17T03:05:04.075Z,11.13
2019-05-17T03:08:08.981Z,11.30
2019-05-17T03:11:13.812Z,12.30
2019-05-17T03:14:18.229Z,11.93
2019-05-17T03:17:23.088Z,11.80
2019-05-17T03:20:27.685Z,11.70
2019-05-17T03:23:32.859Z,12.00
2019-05-17T03:26:37.585Z,11.27
2019-05-17T03:29:42.604Z,9.93
2019-05-17T03:32:54.485Z,9.27
2019-05-17T03:35:56.799Z,8.27
2019-05-17T03:39:03.179Z,8.00
2019-05-17T03:42:08.203Z,7.77
2019-05-17T03:45:14.291Z,7.87
2019-05-17T03:48:18.908Z,7.97
2019-05-17T03:51:23.553Z,8.37
2019-05-17T03:54:28.124Z,8.93
2019-05-17T03:57:32.969Z,10.13
2019-05-17T04:00:37.706Z,10.03
2019-05-17T04:03:43.352Z,9.93
2019-05-17T04:06:48.135Z,10.47
2019-05-17T04:09:53.370Z,9.83
2019-05-17T04:12:57.995Z,8.60
2019-05-17T04:16:07.821Z,8.60
2019-05-17T04:19:09.457Z,9.23
2019-05-17T04:22:14.202Z,8.83
2019-05-17T04:25:18.630Z,9.07
2019-05-17T04:28:23.332Z,9.80
2019-05-17T04:31:30.717Z,9.63
2019-05-17T04:34:34.143Z,9.30
2019-05-17T04:37:38.878Z,10.07
2019-05-17T04:40:43.483Z,10.40
2019-05-17T04:43:48.359Z,12.03
2019-05-17T04:46:53.606Z,10.27
2019-05-17T04:49:58.213Z,9.43
2019-05-17T04:53:03.129Z,10.30
2019-05-17T04:56:07.974Z,9.67
2019-05-17T04:59:13.876Z,10.87
2019-05-17T05:02:18.618Z,10.27
2019-05-17T05:05:23.392Z,9.10
2019-05-17T05:08:28.125Z,10.17
2019-05-17T05:11:33.081Z,10.40
2019-05-17T05:14:37.573Z,10.83
2019-05-17T05:17:42.776Z,11.20
2019-05-17T05:20:47.770Z,12.47
2019-05-17T05:23:52.494Z,13.53
2019-05-17T05:26:56.930Z,14.03
2019-05-17T05:30:03.124Z,13.73
2019-05-17T05:33:07.524Z,14.87
2019-05-17T05:36:11.977Z,15.80
2019-05-17T05:39:16.422Z,17.53
2019-05-17T05:42:22.108Z,18.43
2019-05-17T05:45:26.638Z,19.60
2019-05-17T05:48:32.653Z,19.43
2019-05-17T05:51:37.629Z,18.40
2019-05-17T05:54:42.104Z,24.37
2019-05-17T05:57:46.539Z,24.57
2019-05-17T06:00:53.112Z,22.93
2019-05-17T06:03:57.473Z,22.00
2019-05-17T06:07:02.919Z,20.83
2019-05-17T06:10:12.953Z,22.03
2019-05-17T06:13:16.943Z,23.77
2019-05-17T06:16:22.786Z,23.37
2019-05-17T06:19:27.435Z,24.03
2019-05-17T06:22:32.208Z,26.00
2019-05-17T06:25:36.659Z,24.27
2019-05-17T06:28:42.465Z,23.17
2019-05-17T06:31:46.997Z,23.50
2019-05-17T06:34:51.864Z,23.17
2019-05-17T06:37:56.584Z,23.03
2019-05-17T06:41:01.737Z,23.00
2019-05-17T06:44:06.328Z,20.70
2019-05-17T06:47:11.893Z,22.13
2019-05-17T06:50:16.993Z,20.43
2019-05-17T06:53:21.939Z,21.10
2019-05-17T06:56:26.604Z,19.30
2019-05-17T06:59:31.049Z,19.50
2019-05-17T07:02:36.147Z,18.30
2019-05-17T07:05:42.639Z,20.10
2019-05-17T07:08:49.442Z,18.90
2019-05-17T07:11:53.530Z,19.07
2019-05-17T07:15:01.451Z,18.40
2019-05-17T07:18:04.919Z,17.00
2019-05-17T07:21:10.150Z,17.90
2019-05-17T07:24:14.917Z,17.70
2019-05-17T07:27:19.491Z,16.60
2019-05-17T07:30:24.114Z,16.83
2019-05-17T07:33:30.499Z,15.50
2019-05-17T07:36:35.573Z,16.63
2019-05-17T07:39:42.299Z,17.30
2019-05-17T07:42:46.493Z,16.50
2019-05-17T07:45:51.205Z,13.33
2019-05-17T07:48:55.651Z,14.33
2019-05-17T07:52:00.713Z,17.23
2019-05-17T07:55:07.418Z,15.73
2019-05-17T07:58:11.864Z,15.67
2019-05-17T08:01:16.721Z,14.90
2019-05-17T08:04:21.164Z,14.67
2019-05-17T08:07:25.957Z,14.57
2019-05-17T08:10:30.688Z,14.70
2019-05-17T08:13:35.141Z,14.97
2019-05-17T08:16:39.853Z,14.70
2019-05-17T08:19:44.295Z,12.90
2019-05-17T08:22:50.256Z,12.20
2019-05-17T08:25:56.299Z,11.57
2019-05-17T08:29:00.956Z,10.33
2019-05-17T08:32:05.436Z,11.27
2019-05-17T08:35:11.574Z,10.07
2019-05-17T08:38:16.156Z,10.43
2019-05-17T08:41:20.931Z,9.90
2019-05-17T08:44:25.417Z,10.03
2019-05-17T08:47:30.222Z,8.23
2019-05-17T08:50:34.749Z,9.27
2019-05-17T08:53:39.877Z,10.47
2019-05-17T08:56:44.728Z,10.33
2019-05-17T08:59:49.737Z,8.60
2019-05-17T09:02:54.299Z,8.80
2019-05-17T09:06:02.382Z,8.75
2019-05-17T09:09:09.825Z,10.20
2019-05-17T09:12:13.290Z,8.33
2019-05-17T09:15:20.177Z,9.23
2019-05-17T09:18:23.917Z,8.10
2019-05-17T09:21:31.312Z,8.07
2019-05-17T09:24:34.781Z,8.43
2019-05-17T09:27:39.894Z,10.00
2019-05-17T09:30:44.450Z,9.67
2019-05-17T09:33:49.698Z,9.13
2019-05-17T09:36:54.218Z,8.13
2019-05-17T09:39:59.835Z,9.60
2019-05-17T09:43:04.797Z,9.33
2019-05-17T09:46:10.644Z,8.97
2019-05-17T09:49:15.368Z,8.87
2019-05-17T09:52:20.239Z,9.53
2019-05-17T09:55:24.947Z,9.33
2019-05-17T09:58:29.949Z,8.07
2019-05-17T10:01:34.817Z,8.67
2019-05-17T10:04:39.560Z,8.53
2019-05-17T10:07:44.380Z,9.37
2019-05-17T10:11:04.242Z,8.75
2019-05-17T10:13:58.355Z,8.93
2019-05-17T10:17:01.750Z,9.40
2019-05-17T10:20:10.992Z,9.18
2019-05-17T10:23:15.716Z,9.58
2019-05-17T10:26:20.232Z,8.50
2019-05-17T10:29:24.676Z,7.87
2019-05-17T10:32:30.988Z,8.70
2019-05-17T10:35:35.688Z,8.08
2019-05-17T10:38:40.203Z,7.78
2019-05-17T10:41:44.915Z,7.28
2019-05-17T10:44:51.063Z,7.60
2019-05-17T10:47:55.808Z,8.10
2019-05-17T10:51:00.534Z,8.98
2019-05-17T10:54:05.273Z,8.38
2019-05-17T10:57:10.440Z,7.03
2019-05-17T11:00:19.540Z,7.65
2019-05-17T11:03:23.767Z,7.28
2019-05-17T11:06:30.239Z,7.47
2019-05-17T11:09:34.378Z,7.67
2019-05-17T11:12:38.826Z,9.28
2019-05-17T11:15:43.616Z,8.80
2019-05-17T11:18:48.059Z,9.40
2019-05-17T11:21:52.512Z,6.95
2019-05-17T11:24:56.961Z,7.60
2019-05-17T11:28:01.404Z,6.95
2019-05-17T11:31:06.266Z,6.35
2019-05-17T11:34:10.684Z,5.78
2019-05-17T11:37:15.513Z,5.45
2019-05-17T11:40:20.590Z,6.33
2019-05-17T11:43:25.027Z,6.30
2019-05-17T11:46:36.152Z,6.03
2019-05-17T11:49:35.957Z,5.30
2019-05-17T11:52:40.702Z,5.85
2019-05-17T11:55:45.417Z,5.75
2019-05-17T11:58:50.153Z,5.67
2019-05-17T12:01:54.897Z,5.40
2019-05-17T12:04:59.397Z,5.40
2019-05-17T12:08:04.144Z,5.20
2019-05-17T12:11:08.872Z,5.65
2019-05-17T12:14:13.594Z,4.83
2019-05-17T12:17:18.099Z,4.90
2019-05-17T12:20:23.068Z,5.70
2019-05-17T12:23:27.499Z,4.22
2019-05-17T12:26:32.217Z,4.42
2019-05-17T12:29:36.661Z,4.75
2019-05-17T12:32:41.372Z,4.53
2019-05-17T12:35:46.117Z,5.25
2019-05-17T12:38:50.548Z,5.15
2019-05-17T12:41:55.430Z,5.80
2019-05-17T12:44:59.866Z,5.03
2019-05-17T12:48:04.312Z,5.30
2019-05-17T12:51:08.855Z,4.40
2019-05-17T12:54:13.291Z,4.00
2019-05-17T12:57:17.744Z,4.35
2019-05-17T13:00:24.092Z,3.90
2019-05-17T13:03:28.538Z,4.45
2019-05-17T13:06:32.988Z,4.10
2019-05-17T13:09:37.431Z,3.30
2019-05-17T13:12:41.868Z,4.85
2019-05-17T13:15:46.311Z,3.70
2019-05-17T13:18:51.107Z,3.70
2019-05-17T13:21:55.828Z,4.12
2019-05-17T13:25:00.270Z,3.98
2019-05-17T13:28:04.986Z,3.52
2019-05-17T13:31:09.431Z,3.45
2019-05-17T13:34:14.141Z,4.00
2019-05-17T13:37:18.587Z,4.30
2019-05-17T13:40:23.423Z,3.95
2019-05-17T13:43:28.392Z,3.95
2019-05-17T13:46:33.736Z,3.52
2019-05-17T13:49:38.337Z,4.37
2019-05-17T13:52:43.036Z,4.08
2019-05-17T13:55:47.771Z,5.33
2019-05-17T13:58:52.500Z,4.55
2019-05-17T14:01:56.961Z,3.60
2019-05-17T14:05:01.390Z,3.42
2019-05-17T14:08:06.181Z,2.92
2019-05-17T14:11:10.617Z,3.00
2019-05-17T14:14:15.369Z,3.87
2019-05-17T14:17:20.065Z,3.15
2019-05-17T14:20:24.808Z,4.60
2019-05-17T14:23:29.254Z,3.40
2019-05-17T14:26:33.697Z,3.10
2019-05-17T14:29:38.153Z,3.05
2019-05-17T14:32:42.595Z,3.17
2019-05-17T14:35:47.031Z,2.90
2019-05-17T14:38:51.484Z,3.25
2019-05-17T14:41:56.167Z,3.25
2019-05-17T14:45:00.611Z,3.60
2019-05-17T14:48:05.441Z,3.95
2019-05-17T14:51:09.912Z,3.30
2019-05-17T14:54:14.480Z,3.20
2019-05-17T14:57:18.947Z,2.83
2019-05-17T15:00:23.445Z,2.60
2019-05-17T15:03:28.159Z,3.12
2019-05-17T15:06:32.603Z,2.90
2019-05-17T15:09:37.058Z,2.85
2019-05-17T15:12:41.491Z,3.65
2019-05-17T15:15:45.938Z,2.33
2019-05-17T15:18:50.390Z,1.30
2019-05-17T15:21:54.820Z,2.33
2019-05-17T15:24:59.593Z,2.42
2019-05-17T15:28:04.364Z,1.63
2019-05-17T15:31:08.799Z,2.40
2019-05-17T15:34:13.248Z,2.27
2019-05-17T15:37:17.756Z,2.62
2019-05-17T15:40:22.570Z,2.80
2019-05-17T15:43:27.303Z,2.80
2019-05-17T15:46:31.735Z,3.10
2019-05-17T15:49:36.182Z,2.67
2019-05-17T15:52:40.979Z,2.60
2019-05-17T15:55:45.717Z,2.33
2019-05-17T15:58:50.162Z,2.07
2019-05-17T16:01:54.607Z,1.60
2019-05-17T16:04:59.392Z,1.90
2019-05-17T16:08:03.843Z,1.80
2019-05-17T16:11:08.300Z,1.67
2019-05-17T16:14:13.075Z,2.13
2019-05-17T16:17:17.507Z,2.50
2019-05-17T16:20:21.960Z,2.00
2019-05-17T16:23:26.651Z,2.03
2019-05-17T16:26:31.388Z,2.60
2019-05-17T16:29:35.830Z,2.83
2019-05-17T16:32:40.269Z,2.20
2019-05-17T16:35:45.063Z,2.13
2019-05-17T16:38:49.826Z,2.43
2019-05-17T16:41:54.232Z,1.97
2019-05-17T16:44:58.953Z,2.13
2019-05-17T16:48:03.394Z,1.97
2019-05-17T16:51:08.215Z,2.00
2019-05-17T16:54:12.937Z,2.33
2019-05-17T16:57:17.670Z,2.43
2019-05-17T17:00:31.712Z,2.77
2019-05-17T17:03:44.339Z,2.47
2019-05-17T17:06:42.610Z,2.20
2019-05-17T17:09:47.048Z,2.67
2019-05-17T17:12:51.817Z,2.13
2019-05-17T17:15:56.508Z,2.00
2019-05-17T17:19:00.952Z,2.40
2019-05-17T17:22:05.853Z,2.27
2019-05-17T17:25:10.706Z,2.30
2019-05-17T17:28:15.420Z,3.13
2019-05-17T17:31:20.199Z,3.00
2019-05-17T17:34:24.649Z,3.10
2019-05-17T17:37:29.403Z,2.60
2019-05-17T17:40:33.851Z,3.40
2019-05-17T17:43:38.560Z,2.70
2019-05-17T17:46:43.289Z,2.37
2019-05-17T17:49:48.021Z,2.60
2019-05-17T17:52:52.633Z,2.97
2019-05-17T17:55:57.073Z,2.90
2019-05-17T17:59:01.511Z,3.00
2019-05-17T18:02:06.029Z,3.10
2019-05-17T18:05:10.817Z,3.80
2019-05-17T18:08:15.247Z,3.47
2019-05-17T18:11:19.698Z,3.13
2019-05-17T18:14:24.127Z,2.93
2019-05-17T18:17:28.597Z,3.20
2019-05-17T18:20:33.031Z,2.70
2019-05-17T18:23:37.468Z,2.97
2019-05-17T18:26:42.229Z,3.20
2019-05-17T18:29:46.659Z,2.83
2019-05-17T18:32:51.108Z,2.67
2019-05-17T18:35:55.544Z,2.87
2019-05-17T18:39:01.055Z,2.60
2019-05-17T18:42:05.791Z,2.40
2019-05-17T18:45:10.525Z,2.80
2019-05-17T18:48:15.030Z,2.70
2019-05-17T18:51:19.768Z,2.80
2019-05-17T18:54:24.230Z,2.50
2019-05-17T18:57:29.030Z,2.90
2019-05-17T19:00:33.863Z,2.77
2019-05-17T19:03:38.302Z,2.77
2019-05-17T19:06:42.742Z,2.50
2019-05-17T19:09:47.441Z,2.43
2019-05-17T19:12:52.172Z,2.80
2019-05-17T19:15:56.615Z,2.70
2019-05-17T19:19:01.057Z,2.80
2019-05-17T19:22:05.846Z,2.33
2019-05-17T19:25:11.499Z,2.20
2019-05-17T19:28:15.952Z,2.73
2019-05-17T19:31:20.653Z,2.60
2019-05-17T19:34:25.110Z,2.77
2019-05-17T19:37:29.560Z,2.90
2019-05-17T19:40:33.987Z,2.50
2019-05-17T19:43:38.749Z,2.73
2019-05-17T19:46:43.206Z,2.40
2019-05-17T19:49:47.640Z,2.60
2019-05-17T19:52:52.338Z,2.77
2019-05-17T19:55:56.782Z,2.87
2019-05-17T19:59:01.214Z,2.63
2019-05-17T20:02:06.675Z,2.70
2019-05-17T20:05:12.766Z,2.60
2019-05-17T20:08:17.207Z,2.87
2019-05-17T20:11:33.579Z,2.77
2019-05-17T20:14:28.431Z,3.03
2019-05-17T20:17:33.148Z,2.67
2019-05-17T20:20:37.594Z,2.60
2019-05-17T20:23:43.714Z,3.20
2019-05-17T20:26:48.452Z,3.00
2019-05-17T20:29:53.205Z,3.37
2019-05-17T20:32:57.657Z,3.00
2019-05-17T20:36:02.379Z,2.70
2019-05-17T20:39:07.799Z,2.70
2019-05-17T20:42:12.732Z,3.43
2019-05-17T20:45:31.684Z,3.13
2019-05-17T20:48:25.882Z,3.30
2019-05-17T20:51:29.711Z,2.87
2019-05-17T20:54:34.152Z,3.90
2019-05-17T20:57:38.950Z,3.13
2019-05-17T21:00:44.090Z,3.43
2019-05-17T21:03:48.565Z,3.60
2019-05-17T21:06:53.350Z,3.10
2019-05-17T21:09:57.784Z,3.23
2019-05-17T21:13:02.543Z,3.50
2019-05-17T21:16:07.016Z,3.50
2019-05-17T21:19:11.465Z,3.40
2019-05-17T21:22:15.918Z,3.60
2019-05-17T21:25:20.600Z,3.30
2019-05-17T21:28:25.435Z,3.20
2019-05-17T21:31:30.148Z,2.90
2019-05-17T21:34:34.896Z,3.27
2019-05-17T21:37:39.341Z,3.70
2019-05-17T21:40:44.061Z,3.83
2019-05-17T21:43:48.505Z,3.67
2019-05-17T21:47:04.248Z,3.20
2019-05-17T21:49:59.477Z,2.90
2019-05-17T21:53:03.921Z,2.90
2019-05-17T21:56:08.360Z,3.20
2019-05-17T21:59:12.945Z,3.10
2019-05-17T22:02:17.582Z,3.20
2019-05-17T22:05:22.306Z,2.83
2019-05-17T22:08:27.044Z,2.60
2019-05-17T22:11:31.773Z,2.57
2019-05-17T22:14:36.220Z,2.87
2019-05-17T22:17:40.938Z,2.80
2019-05-17T22:20:45.367Z,2.80
2019-05-17T22:23:49.881Z,2.77
2019-05-17T22:26:54.317Z,3.03
2019-05-17T22:29:58.766Z,2.77
2019-05-17T22:33:03.206Z,2.30
2019-05-17T22:36:07.979Z,2.57
2019-05-17T22:39:12.420Z,2.53
2019-05-17T22:42:16.858Z,2.60
2019-05-17T22:45:21.316Z,2.20
2019-05-17T22:48:26.087Z,2.37
2019-05-17T22:51:30.513Z,2.50
2019-05-17T22:54:34.958Z,2.37
2019-05-17T22:57:39.394Z,2.30
2019-05-17T23:00:43.919Z,2.83
2019-05-17T23:03:48.358Z,3.00
2019-05-17T23:06:52.793Z,3.27
2019-05-17T23:09:57.242Z,3.50
2019-05-17T23:13:01.995Z,3.17
2019-05-17T23:16:08.074Z,4.20
2019-05-17T23:19:12.586Z,4.27
2019-05-17T23:22:17.406Z,5.43
2019-05-17T23:25:21.850Z,4.83
2019-05-17T23:28:26.565Z,6.30
2019-05-17T23:31:31.387Z,6.23
2019-05-17T23:34:35.839Z,5.67
2019-05-17T23:37:40.278Z,7.03
2019-05-17T23:40:44.729Z,7.50
2019-05-17T23:43:49.162Z,7.17
2019-05-17T23:47:05.999Z,7.07
2019-05-17T23:50:00.083Z,6.73
2019-05-17T23:53:04.813Z,7.07
2019-05-17T23:56:09.256Z,6.03
2019-05-17T23:59:13.706Z,7.00
